x

8452951 - Potter Cove, Prudence Island, Ri (ptcr1) Weather Station

5:54am - Mon 23rd Jan 2017 All times are EST. -5 hours from GMT.

  • Wind
    17mph, 24mph gusts
  • Air Temp 38°f
  • Sea Pressure 1014.8mb
  • 8452951 - Potter Cove, Prudence Island, Ri
  • 8452951 - Potter Cove, Prudence Island, Ri

More Historic Weather Station data

Upgrade to MSW Pro to gain access to the past 30 days of data for over 8000 Wavebouys and Weather Stations around the globe.

Join Pro

Comparision Forecast

View Surf forecast
   
Mon 01/23 5:54am 17 24 mph 1014.8mb 38f
5:48am 20 26 mph 1014.7mb 38f
5:42am 20 25 mph 1014.8mb 38f
5:36am 20 24 mph 1014.6mb 38f
5:30am 17 25 mph 1014.6mb 38f
5:24am 17 24 mph 1015mb 38f
5:18am 17 25 mph 1015.1mb 38f
5:12am 18 26 mph 1015.2mb 38f
5:06am 14 21 mph 1015.1mb 38f
5:00am 21 29 mph 1015mb 38f
4:54am 17 23 mph 1014.9mb 38f
4:48am 18 25 mph 1014.6mb 38f
4:42am 17 23 mph 1014.3mb 38f
4:36am 18 28 mph 1014.2mb 38f
4:30am 18 23 mph 1013.8mb 38f
4:24am 22 30 mph 1013.7mb 39f
4:18am 23 30 mph 1013.6mb 39f
4:12am 25 37 mph 1013.1mb 39f
4:06am 23 32 mph 1013mb 40f
4:00am 22 29 mph 1012.8mb 40f
3:54am 21 25 mph 1013mb 40f
3:48am 22 29 mph 1013.3mb 40f
3:42am 17 26 mph 1013.6mb 40f
3:36am 18 25 mph 1013.8mb 40f
3:30am 20 26 mph 1014mb 40f
3:24am 17 26 mph 1014.2mb 40f
3:18am 18 24 mph 1014.5mb 40f
3:12am 17 22 mph 1014.5mb 40f
3:06am 14 21 mph 1014.5mb 40f
3:00am 17 24 mph 1014.5mb 40f
2:54am 14 18 mph 1014.3mb 40f
2:48am 15 23 mph 1014.4mb 40f
2:42am 15 20 mph 1014.4mb 40f
2:36am 15 21 mph 1014.3mb 40f
2:30am 16 22 mph 1014.3mb 40f
2:24am 16 22 mph 1014.2mb 40f
2:18am 18 23 mph 1014mb 40f
2:12am 18 25 mph 1014mb 41f
2:06am 20 29 mph 1013.9mb 41f
2:00am 14 18 mph 1013.9mb 41f
1:54am 15 20 mph 1014mb 41f
1:48am 13 17 mph 1014mb 41f
1:42am 17 23 mph 1013.9mb 41f
1:36am 16 22 mph 1013.8mb 41f
1:30am 14 20 mph 1013.7mb 41f
1:24am 16 21 mph 1013.8mb 41f
1:18am 15 22 mph 1013.8mb 41f
1:12am 15 22 mph 1013.8mb 41f
1:06am 14 18 mph 1013.6mb 41f
1:00am 15 21 mph 1013.6mb 41f
12:54am 16 24 mph 1013.7mb 41f
12:48am 16 24 mph 1013.7mb 41f
12:42am 17 25 mph 1013.6mb -
12:36am 15 22 mph 1013.4mb -
12:30am 14 18 mph 1013.2mb 41f
12:24am 16 22 mph 1013.4mb 41f
12:18am 16 22 mph 1013.4mb -
12:12am 15 21 mph 1013.4mb 41f
12:06am 17 22 mph 1013.3mb 41f
12:00am 15 20 mph 1013.3mb 41f
Sun 01/22 11:54pm 16 22 mph 1013.3mb 41f
11:48pm 16 21 mph 1013.3mb 41f
11:42pm 17 23 mph 1013.4mb 41f
11:36pm 14 23 mph 1013.5mb 41f
11:30pm 15 23 mph 1013.4mb 41f
11:24pm 16 22 mph 1013.3mb 41f
11:18pm 16 24 mph 1013.2mb 41f
11:12pm 16 21 mph 1013.2mb 41f
11:06pm 16 20 mph 1013.1mb 41f
11:00pm 17 23 mph 1013mb 41f
10:54pm 16 23 mph 1012.9mb 41f
10:48pm 16 21 mph 1012.9mb -
10:42pm 14 17 mph 1013.1mb 42f
10:36pm 16 23 mph 1013.3mb 42f
10:30pm 17 23 mph 1013.3mb 42f
10:24pm 15 21 mph 1013.3mb 42f
10:18pm 16 22 mph 1013.3mb 41f
10:12pm 14 18 mph 1013.2mb 41f
10:06pm 16 22 mph 1013.2mb 41f
10:00pm 16 22 mph 1013.1mb 41f
9:54pm 15 21 mph 1013mb 41f
9:48pm 16 22 mph 1013mb -
9:42pm 15 20 mph 1013mb 41f
9:36pm 16 22 mph 1012.9mb 41f
9:30pm 14 20 mph 1012.9mb 41f
9:24pm 13 17 mph 1013.1mb 41f
9:18pm 14 17 mph 1013.1mb 41f
9:12pm 13 16 mph 1013mb 41f
9:06pm 14 17 mph 1012.9mb 41f
9:00pm 15 21 mph - 41f
8:54pm 15 21 mph - 41f
8:48pm 14 21 mph 1012.9mb -
8:42pm 14 20 mph 1012.9mb 41f
8:36pm 13 16 mph 1012.9mb 42f
8:30pm 13 18 mph 1013mb -
8:24pm 13 17 mph 1013mb -
8:18pm 11 16 mph - -
8:12pm 16 24 mph 1012.7mb 42f
8:06pm 14 18 mph 1012.5mb 42f
8:00pm 14 22 mph 1012.6mb 42f
7:54pm 13 20 mph 1012.6mb 42f
7:48pm 13 17 mph 1012.5mb 42f
7:42pm 15 21 mph 1012.1mb 42f
7:36pm 14 20 mph 1011.9mb 42f
7:30pm 14 20 mph 1011.9mb 42f
7:24pm 13 18 mph 1011.8mb 42f
7:18pm 14 18 mph - -
7:12pm 10 15 mph 1011.8mb 43f
7:06pm 11 16 mph 1011.8mb 43f
7:00pm 14 20 mph 1011.4mb 43f
6:54pm 14 21 mph 1011.2mb 43f
6:48pm 10 14 mph 1011.3mb -
6:42pm 10 14 mph 1011.4mb -
6:36pm 10 14 mph 1011.5mb -
6:30pm 13 16 mph 1011.6mb 44f
6:24pm 14 20 mph 1011.5mb 44f
6:18pm 14 18 mph 1011.4mb 44f
6:12pm 14 17 mph 1011.3mb 44f
6:06pm 16 21 mph 1011.3mb 44f
6:00pm 14 17 mph 1011.4mb 44f
5:54pm 16 22 mph 1011.4mb 44f
5:48pm 15 21 mph - -
5:42pm 15 21 mph - 44f
5:36pm 15 18 mph - 44f
5:30pm 16 22 mph 1010.7mb 44f
5:24pm 16 22 mph 1010.5mb 44f
5:18pm 15 21 mph 1010.3mb 45f
5:12pm 17 22 mph 1010.2mb 45f
5:06pm 17 23 mph 1010.1mb 45f
5:00pm 17 22 mph 1009.7mb 45f
4:54pm 17 22 mph 1009.6mb 45f
4:48pm 14 21 mph 1009.6mb 46f
4:42pm 11 16 mph 1009.6mb 45f
4:36pm 14 18 mph 1009.6mb 45f
4:30pm 13 16 mph 1009.6mb 45f
4:12pm 13 17 mph 1009.4mb 45f
4:06pm 14 17 mph 1009.6mb 45f
4:00pm 11 15 mph 1009.7mb 46f
3:54pm 13 17 mph 1009.9mb 45f
3:48pm 10 16 mph 1009.9mb 46f
3:42pm 11 16 mph 1009.9mb 46f
3:36pm 13 17 mph 1009.9mb 46f
3:30pm 11 16 mph 1009.8mb 46f
3:24pm 14 20 mph 1009.7mb 46f
3:18pm 15 18 mph 1009.5mb 46f
3:12pm 15 20 mph 1009.3mb 47f
3:06pm 15 22 mph 1009.1mb 47f
3:00pm 13 15 mph 1008.9mb 46f
2:54pm 14 17 mph 1008.9mb 46f
2:48pm 15 18 mph 1008.8mb 47f
2:42pm 16 20 mph 1008.7mb 47f
2:36pm 14 16 mph 1008.7mb 47f
2:30pm 11 14 mph 1008.8mb 47f
2:24pm 10 15 mph 1008.9mb 47f
2:18pm 13 17 mph 1008.9mb 47f
2:12pm 10 13 mph 1008.7mb 47f
2:06pm 10 13 mph 1008.5mb 47f
2:00pm 9 10 mph 1008.5mb 47f
1:54pm 9 11 mph 1008.5mb 47f
1:48pm 8 11 mph 1008.4mb 47f
1:42pm 8 13 mph 1008.3mb 47f
1:36pm 7 8 mph 1008.3mb 47f
1:30pm 6 8 mph 1008.6mb 47f
1:24pm 7 8 mph 1008.5mb 47f
1:18pm 9 10 mph 1008.4mb 46f
1:12pm 9 11 mph 1008.4mb 46f
1:06pm 8 13 mph 1008.5mb 47f
1:00pm 10 13 mph 1008.5mb -
12:54pm 11 14 mph 1008.4mb 46f
12:48pm 9 11 mph 1008.4mb 46f
12:42pm 9 11 mph 1008.4mb 46f
12:36pm 11 14 mph 1008.4mb 46f
12:30pm 8 9 mph 1008.5mb 46f
12:24pm 7 8 mph 1008.8mb 46f
12:18pm 7 8 mph 1008.9mb 46f
12:12pm 7 9 mph 1008.8mb 46f
12:06pm 6 7 mph 1008.8mb 46f
12:00pm 6
mph
1008.8mb 46f
11:54am 6 7 mph 1009mb 46f
11:48am 5 6 mph 1008.9mb 45f
11:42am 6 7 mph 1009mb 45f
11:36am 6 9 mph 1008.9mb 44f
11:30am 7 8 mph 1009mb 44f
11:24am 8 10 mph 1009mb 44f
11:18am 5 7 mph 1009mb 45f
11:12am 7 10 mph 1009.2mb 45f
11:06am 7
mph
1009mb 45f
11:00am 6 8 mph 1009mb 45f
10:54am 3 5 mph 1009.2mb 44f
10:48am 6 7 mph 1009.3mb 44f
10:42am 6 7 mph 1009.3mb 44f
10:36am 5 6 mph 1009.4mb 43f
10:30am 3 5 mph 1009.4mb 43f
10:24am 2 3 mph 1009.4mb 43f
10:18am  -  2 mph 1009.4mb 43f
10:12am 2 5 mph 1009.4mb 43f
10:06am 2 3 mph 1009.3mb 42f
10:00am 1 3 mph 1009.3mb 42f
9:54am 3 5 mph 1009.2mb 43f
9:48am 1 2 mph 1009.2mb 42f
9:42am 2 3 mph 1009.3mb 41f
9:36am  -  2 mph 1009.3mb 41f
9:30am 2 3 mph 1009.4mb 41f
9:24am 2 5 mph 1009.3mb 40f
9:18am  -  1 mph 1009.3mb 41f
9:12am 2
mph
1009.2mb 40f
9:06am 3 5 mph 1009.1mb 40f
9:00am 1 2 mph 1009.1mb 40f
8:54am 3 5 mph 1009.3mb 40f
8:48am 6 9 mph - 39f
8:42am 8 10 mph - 39f
8:36am 10 14 mph - 40f
8:30am 9 11 mph 1008.9mb 39f
8:24am 7 9 mph 1008.9mb 39f
8:18am 6 8 mph 1008.9mb 39f
8:12am 5 6 mph 1009.1mb 39f
8:06am 3 6 mph 1009.2mb 39f
8:00am 5 6 mph 1009.2mb 39f
7:54am 5 6 mph 1009.2mb 39f
7:48am 3
mph
1009.1mb 39f
7:42am 5
mph
1009.1mb 38f
7:36am 1 2 mph 1009mb 39f
7:30am  -  2 mph 1009mb 38f
7:24am 2 3 mph 1009mb 39f
7:18am 3 5 mph 1009.1mb 39f
7:12am 2 5 mph 1009.1mb 39f
7:06am 6 7 mph 1009mb 39f
7:00am 5 6 mph 1008.8mb 39f
6:54am 3 5 mph 1008.8mb 39f
6:48am 5 6 mph 1008.8mb 39f
6:42am 5 6 mph 1008.7mb 39f
6:36am 3 6 mph 1008.8mb 39f
6:30am 3
mph
1008.6mb 38f
6:24am 2 3 mph 1008.8mb 38f
6:18am 2
mph
1008.8mb 39f
6:12am  -  1 mph 1008.6mb 39f
6:06am 1 2 mph 1008.4mb 38f
6:00am  -  1 mph 1008.4mb 39f
5:54am  -  1 mph 1008.4mb 39f
5:48am 1 2 mph 1008.3mb 39f
5:42am  -  1 mph 1008.3mb 39f
5:36am  -  1 mph 1008.3mb 39f
5:30am  -  1 mph 1008.2mb 39f
5:24am  -  1 mph 1008.2mb 39f
5:18am 1 2 mph 1008mb 39f
5:12am 2 5 mph 1008.1mb 39f
5:06am 2 3 mph 1008.1mb 39f
5:00am 3 6 mph 1007.9mb 39f
4:54am 2 3 mph 1007.9mb 39f
4:48am 3 5 mph 1008.1mb 39f
4:42am 3 6 mph 1008.1mb 39f
4:36am 3 5 mph 1007.9mb 39f
4:30am 6 10 mph 1007.8mb 39f
4:24am 6 8 mph 1007.7mb 39f
4:18am 3 5 mph 1007.6mb 39f
4:12am 5 6 mph 1007.5mb 39f
4:06am 2 3 mph 1007.5mb 39f
4:00am 3 6 mph 1007.6mb 39f
3:54am 5 7 mph 1007.7mb 39f
3:48am 7 10 mph 1007.8mb 39f
3:42am 3 6 mph 1007.9mb 39f
3:36am 5 8 mph 1007.9mb 39f
3:30am 5 7 mph 1008mb 39f
3:24am 5 6 mph 1008mb 39f
3:18am 6 8 mph 1007.9mb 39f
3:12am 5 7 mph 1007.9mb 39f
3:06am 5 7 mph 1008mb 39f
3:00am 3 6 mph 1008mb 39f
2:54am 5 7 mph 1008mb 39f
2:48am 5 6 mph 1008mb 39f
2:42am 2 3 mph 1008.1mb 40f
2:36am 2 3 mph 1008.3mb 39f
2:30am  -  2 mph 1008.2mb 39f
2:24am 1 2 mph 1008.3mb 39f
2:18am 2 5 mph 1008.4mb -
2:12am 1 2 mph 1008.4mb 40f
2:06am 2 3 mph 1008.4mb 40f
2:00am  -  2 mph 1008.4mb 40f
1:54am 3 5 mph 1008.5mb 40f
1:48am 3 5 mph 1008.6mb 40f
1:42am 5 6 mph 1008.6mb -
1:36am 5 6 mph 1008.5mb -
1:30am 5 6 mph 1008.5mb 40f
1:24am 3 6 mph 1008.5mb 39f
1:18am 5 6 mph 1008.4mb 39f
1:12am 3 6 mph 1008.2mb 39f
1:06am 5 6 mph 1008.1mb 40f
1:00am 5 6 mph 1008.1mb 40f
12:54am 3 6 mph 1008.1mb 39f
12:48am 3 6 mph 1008mb -
12:42am 6 7 mph 1008.1mb 39f
12:36am 3 7 mph 1008.2mb 39f
12:30am 3 7 mph 1008.3mb 39f
12:24am 6 9 mph 1008.3mb 39f
12:18am 5 8 mph 1008.3mb 39f
12:12am 5 8 mph 1008.3mb 40f
12:06am 5 6 mph 1008.2mb 40f
12:00am 3 6 mph 1008.2mb 40f
Sat 01/21 11:54pm 3 6 mph 1008.2mb 40f
11:48pm 5 7 mph 1008.3mb 40f
11:42pm 3 5 mph 1008.3mb 40f
11:36pm 3 6 mph 1008.2mb 41f
11:30pm 2 5 mph 1008.2mb 41f
11:24pm 3 6 mph 1008.3mb 41f
11:18pm 3 6 mph 1008.3mb 41f
11:12pm 3 6 mph 1008.4mb 41f
11:06pm 5 8 mph 1008.5mb 41f
11:00pm 6 9 mph 1008.5mb 41f
10:54pm 5 7 mph 1008.5mb 41f
10:48pm 5 7 mph 1008.5mb 41f
10:42pm 5 6 mph 1008.5mb 41f
10:36pm 3 6 mph 1008.5mb 41f
10:30pm 5 7 mph 1008.5mb 41f
10:24pm 5 7 mph 1008.5mb 41f
10:18pm 5 7 mph 1008.5mb 41f
10:12pm 6 8 mph 1008.5mb 42f
10:06pm 6 8 mph 1008.5mb 42f
10:00pm 5 7 mph 1008.4mb 41f
9:54pm 5 8 mph 1008.6mb 41f
9:48pm 3 6 mph 1008.7mb -
9:42pm 6 8 mph 1008.6mb 41f
9:36pm 5 6 mph 1008.6mb 41f
9:30pm 5 7 mph 1008.8mb 42f
9:24pm 6 8 mph 1008.8mb 42f
9:18pm 5 7 mph 1008.8mb 41f
9:12pm 6 8 mph 1008.9mb 41f
9:06pm 6 7 mph 1009mb 41f
9:00pm 6 8 mph 1009.1mb -
8:54pm 6 8 mph 1009.1mb 41f
8:48pm 5 7 mph 1009.1mb -
8:42pm 5 7 mph 1009.1mb 41f
8:36pm 5 8 mph 1009.1mb 41f
8:30pm 5 7 mph 1009.1mb -
8:24pm 5 7 mph 1009.1mb 41f
8:18pm 3 6 mph 1009.1mb 41f
8:12pm 6 7 mph 1009.2mb 41f
8:06pm 6 7 mph 1009.2mb 41f
8:00pm 6 8 mph 1009.2mb 41f
7:54pm 6 8 mph 1009.1mb 41f
7:48pm 6 9 mph 1009.1mb 41f
7:42pm 7 9 mph 1009.1mb 41f
7:36pm 7 10 mph 1009.1mb 41f
7:30pm 7 10 mph 1009.1mb 41f
7:24pm 7 10 mph 1009.1mb 40f
7:18pm 7 10 mph 1009mb -
7:12pm 7 10 mph 1009mb 40f
7:06pm 6 9 mph 1009.2mb 40f
7:00pm 6 9 mph 1009.2mb 40f
6:54pm 6 8 mph 1009.2mb 40f
6:48pm 6 9 mph 1009.2mb -
6:42pm 6 8 mph 1009.1mb -
6:36pm 6 8 mph 1009.1mb -
6:30pm 6 9 mph 1009.1mb 41f
6:24pm 6 10 mph 1009mb 41f
6:18pm 6 10 mph - -
6:12pm 7 10 mph 1009mb 41f
6:06pm 7 9 mph 1008.9mb 41f
6:00pm 7 9 mph 1008.9mb 41f
5:54pm 7 10 mph 1008.8mb 42f
5:48pm 6 10 mph 1008.8mb -
5:42pm 6 9 mph 1008.7mb -
5:36pm 6 8 mph 1008.6mb -
5:30pm 5 8 mph 1008.7mb 42f
5:24pm 5 9 mph 1008.7mb 43f
5:18pm 6 9 mph 1008.8mb 43f
5:12pm 5 8 mph 1008.9mb 43f
5:06pm 5 9 mph 1008.9mb 43f
5:00pm 6 9 mph 1008.9mb 44f
4:54pm 6 10 mph 1008.9mb 44f
4:48pm 5 7 mph 1008.8mb -
4:42pm 5 7 mph 1008.8mb 45f
4:36pm 5 8 mph 1008.6mb 46f
4:30pm 6 9 mph 1008.6mb 46f
4:24pm 5 8 mph 1008.5mb 46f
4:18pm 6 9 mph 1008.4mb 47f
4:12pm 6 9 mph 1008.4mb 47f
4:06pm 7 10 mph 1008.4mb 47f
4:00pm 7 11 mph 1008.4mb 47f
3:54pm 7 10 mph 1008.2mb 47f
3:48pm 8 13 mph 1008.2mb 47f
3:42pm 7 10 mph 1008.1mb 49f
3:36pm 8 14 mph 1008.1mb 49f
3:30pm 8 14 mph 1008.1mb 50f
3:24pm 7 10 mph 1008.1mb 50f
3:18pm 7 9 mph 1008.1mb 50f
3:12pm 6 9 mph 1008mb 48f
3:06pm 6 9 mph 1008.1mb 48f
3:00pm 5 8 mph 1008.1mb 48f
2:54pm 6 10 mph 1008.1mb 49f
2:48pm 6 9 mph 1008.1mb 49f
2:42pm 6 10 mph 1008.2mb 49f
2:36pm 6 10 mph 1008.1mb 49f
2:30pm 5 8 mph 1008.3mb 49f
2:24pm 3 6 mph 1008.2mb 49f
2:18pm 5 7 mph 1008.3mb -
2:12pm 6 9 mph 1008.4mb 49f
2:06pm 6 9 mph 1008.4mb 48f
2:00pm 6 9 mph 1008.3mb 47f
1:54pm 7 10 mph 1008.4mb 48f
1:48pm 6 10 mph 1008.6mb 48f
1:42pm 6 10 mph - 47f
1:36pm 7 10 mph - 47f
1:30pm 7 14 mph 1008.8mb 47f
1:24pm 7 11 mph 1008.8mb 46f
1:18pm 8 11 mph 1009.1mb 46f
1:12pm 8 11 mph 1009.3mb 45f
1:06pm 7 11 mph 1009.2mb 46f
1:00pm 9 14 mph 1009.1mb 46f
12:54pm 7 13 mph 1009.5mb 45f
12:48pm 7 9 mph 1009.5mb 45f
12:42pm 6 10 mph 1009.5mb 45f
12:36pm 6 10 mph 1009.5mb 44f
12:30pm 6 9 mph 1009.6mb 44f
12:24pm 5 7 mph 1009.5mb 44f
12:18pm 6 7 mph 1009.5mb 44f
12:12pm 5 7 mph 1009.6mb 44f
12:06pm 6 9 mph 1009.7mb 45f
12:00pm 6 8 mph 1009.7mb 45f
11:54am 7 9 mph 1009.8mb 45f
11:48am 6 9 mph 1010.1mb -
11:42am 6 9 mph 1010.1mb 45f
11:36am 6 10 mph 1010.1mb 45f
11:30am 7 9 mph 1010.4mb 45f
11:24am 8 11 mph 1010.6mb 44f
11:18am 8 10 mph 1010.7mb 44f
11:12am 8 13 mph 1010.8mb 44f
11:06am 8 11 mph 1010.8mb 44f
11:00am 8 11 mph 1010.9mb 44f
10:54am 9 13 mph 1010.9mb 44f
10:48am 9 13 mph 1011.2mb 44f
10:42am 9 13 mph 1011.2mb 44f
10:36am 7 10 mph 1011.3mb 44f
10:30am 6 8 mph 1011.3mb 43f
10:24am 6 10 mph 1011.3mb 43f
10:18am 7 9 mph 1011.5mb 43f
10:12am 8 13 mph 1011.7mb 43f
10:06am 7 10 mph 1011.9mb 44f
10:00am 6 9 mph 1011.9mb 44f
9:54am 5 7 mph 1011.7mb 43f
9:48am 6 7 mph 1011.7mb 43f
9:42am 5 7 mph 1011.5mb 43f
9:36am 5 7 mph 1011.4mb 43f
9:30am 6 10 mph 1011.4mb 44f
9:24am 7 10 mph 1011.5mb 44f
9:18am 7 10 mph 1011.6mb -
9:12am 6 9 mph 1011.6mb 43f
9:06am 7 10 mph 1011.6mb 43f
9:00am 7 11 mph 1011.5mb 43f
8:54am 7 10 mph 1011.5mb 43f
8:48am 5 7 mph 1011.7mb 43f
8:42am 5 6 mph 1011.5mb 43f
8:36am 5 6 mph 1011.6mb 43f
8:30am 2 3 mph 1011.6mb 43f
8:24am 2 5 mph 1011.5mb 42f
8:18am 3 5 mph 1011.8mb 42f
8:12am 5 6 mph 1012.1mb 42f
8:06am 5 6 mph 1012.2mb 42f
8:00am 5 6 mph 1012.3mb 42f
7:54am 5 6 mph 1012.3mb 42f
7:48am 3 6 mph 1012.2mb 42f
7:42am 2 5 mph 1012.1mb 42f
7:36am 2 3 mph 1012mb 42f
7:30am 2 5 mph 1011.8mb 42f
7:24am 3 6 mph 1011.8mb 42f
7:18am 3 6 mph 1011.8mb 41f
7:12am 3 6 mph 1012mb 41f
7:06am 2 5 mph 1011.9mb 41f
7:00am 2 3 mph 1011.9mb 41f
6:54am 2 5 mph 1011.9mb 41f
6:48am 3 6 mph 1011.9mb 41f
6:42am 3 5 mph 1011.9mb 41f
6:36am 3 5 mph 1011.9mb 41f
6:30am 3 7 mph 1012mb 41f
6:24am 5 6 mph 1012mb 41f
6:18am 5 7 mph 1012mb 41f
6:12am 5 7 mph 1012mb 41f
6:06am 3 6 mph 1011.9mb 41f
6:00am 3 6 mph 1011.9mb 41f
5:54am 3 6 mph 1011.8mb 41f
5:48am 3 5 mph 1011.8mb 41f
5:42am 3 5 mph 1011.8mb 41f
5:36am 5 6 mph 1011.8mb 41f
5:30am 5 7 mph 1011.8mb 41f
5:24am 5 7 mph 1011.8mb 41f
5:18am 5 7 mph 1011.8mb 41f
5:12am 5 6 mph 1011.9mb 41f
5:06am 3 6 mph 1011.9mb 41f
5:00am 3 6 mph 1011.9mb 41f
4:54am 2 5 mph 1012mb 40f
4:48am 2 3 mph 1012.1mb 40f
4:42am 2 3 mph 1012.1mb 40f
4:36am 2 3 mph 1012.2mb 40f
4:30am 2 3 mph 1012.2mb 40f
4:24am 1 2 mph 1012.2mb 40f
4:18am 2 3 mph 1012.3mb 40f
4:12am 2
mph
1012.3mb 40f
4:06am 1 2 mph 1012.4mb 40f
4:00am 1 2 mph 1012.4mb 40f
3:54am 1 2 mph 1012.5mb 40f
3:48am  -  1 mph 1012.6mb 40f
3:42am 1 2 mph 1012.7mb 40f
3:36am 1 2 mph 1012.7mb 40f
3:30am 1 2 mph 1012.7mb 40f
3:24am  -  2 mph 1012.7mb 40f
3:18am 2 3 mph 1012.9mb 40f
3:12am 2 3 mph 1012.9mb 40f
3:06am 2 3 mph 1013mb 40f
3:00am 2 3 mph 1013.1mb 40f
2:54am 2 3 mph 1013.1mb 40f
2:48am 2 3 mph 1013.3mb 40f
2:42am 1 2 mph 1013.3mb 41f
2:36am 1 2 mph 1013.4mb 41f
2:30am  -  2 mph 1013.4mb 41f
2:24am 1 2 mph 1013.5mb 41f
2:18am  -  1 mph 1013.5mb 41f
2:12am 1 3 mph 1013.5mb 41f
2:06am  -  2 mph 1013.6mb 41f
2:00am 1 2 mph 1013.7mb 40f
1:54am 1 3 mph 1013.6mb 40f
1:48am  -  2 mph 1013.6mb 40f
1:42am  -  1 mph 1013.6mb 40f
1:36am  -  1 mph 1013.5mb 40f
1:30am  -  1 mph 1013.5mb 40f
1:24am  -  mph 1013.5mb 40f
1:18am  -  1 mph 1013.5mb 40f
1:12am  -  mph 1013.5mb 40f
1:06am  -  1 mph 1013.5mb 40f
1:00am  -  1 mph - -
12:54am  -  1 mph 1013.5mb 40f
12:48am  -  2 mph 1013.5mb 40f
12:42am  -  1 mph 1013.6mb -
12:36am  -  1 mph 1013.7mb -
12:30am 1 2 mph 1013.7mb 40f
12:24am  -  1 mph 1013.7mb 40f
12:18am  -  1 mph 1013.7mb 40f
12:12am  -  1 mph 1013.7mb 39f
12:06am  -  2 mph 1013.8mb 39f
12:00am  -  1 mph 1013.8mb 39f
Fri 01/20 11:54pm  -  1 mph 1013.9mb 39f
11:48pm  -  1 mph 1013.9mb 39f
11:42pm 1
mph
1014mb 39f
11:36pm  -  1 mph 1014mb 39f
11:30pm  -  1 mph 1014.1mb 39f
11:24pm 1
mph
1014.1mb 39f
11:18pm  -  1 mph 1014.1mb 39f
11:12pm  -  1 mph 1014.2mb 39f
11:06pm  -  1 mph 1014.2mb 39f
11:00pm  -  1 mph 1014.4mb 39f
10:54pm  -  1 mph 1014.4mb 39f
10:48pm  -  mph 1014.5mb 39f
10:42pm  -  mph 1014.5mb 39f
10:36pm  -  mph 1014.5mb 39f
10:30pm  -  mph 1014.5mb 39f
10:24pm  -  mph 1014.6mb 39f
10:18pm  -  1 mph 1014.6mb 39f
10:12pm  -  1 mph 1014.6mb 39f
10:06pm  -  1 mph 1014.6mb 39f
10:00pm  -  1 mph 1014.6mb -
9:54pm  -  mph 1014.6mb 39f
9:48pm  -  1 mph 1014.6mb -
9:42pm  -  2 mph 1014.6mb 39f
9:36pm  -  1 mph 1014.6mb 39f
9:30pm  -  1 mph - 39f
9:24pm  -  1 mph - 39f
9:18pm  -  1 mph 1014.7mb 39f
9:12pm 2 3 mph 1014.7mb 39f
9:06pm 2
mph
1014.7mb 39f
9:00pm 2
mph
1014.7mb 39f
8:54pm 1 2 mph 1014.7mb 39f
8:48pm 1 2 mph 1014.8mb -
8:42pm 2 3 mph 1014.8mb 39f
8:36pm 2 3 mph 1014.8mb 39f
8:30pm 2 3 mph 1014.8mb 39f
8:24pm 2 3 mph 1014.8mb 40f
8:18pm 1 2 mph 1014.8mb 40f
8:12pm 1 3 mph 1014.8mb 40f
8:06pm 2 3 mph 1014.9mb 40f
8:00pm 2
mph
1014.9mb 40f
7:54pm 3 5 mph 1015mb 40f
7:48pm 3 5 mph - 40f
7:42pm 3 5 mph - 40f
7:36pm 3 5 mph - 40f
7:30pm 3 5 mph 1015.2mb 40f
7:24pm 5 7 mph 1015.1mb 40f
7:18pm 2 3 mph - -
7:12pm 1 2 mph 1015.1mb 39f
7:06pm 1 2 mph 1015.1mb 39f
7:00pm 2 3 mph 1015.1mb 39f
6:54pm 1 2 mph 1015.2mb 39f
6:48pm 1 2 mph 1015.2mb -
6:42pm 2 3 mph 1015.2mb 39f
6:36pm 2 5 mph 1015.3mb 39f
6:30pm 2 5 mph 1015.3mb 39f
6:24pm 2
mph
1015.3mb 39f
6:18pm 1 2 mph 1015.3mb 39f
6:12pm  -  1 mph 1015.3mb 39f
6:06pm  -  1 mph 1015.2mb 39f
6:00pm  -  mph 1015.2mb 38f
5:54pm  -  1 mph 1015.2mb 38f
5:48pm  -  1 mph 1015.2mb -
5:42pm 1 3 mph 1015.2mb 38f
5:36pm 2 3 mph 1015.2mb 38f
5:30pm 2 3 mph 1015.2mb 38f
5:24pm 1 3 mph 1015.1mb 38f
5:18pm 2 3 mph 1015.1mb 38f
5:12pm 1 2 mph 1015.1mb 38f
5:06pm 1 2 mph 1015mb 38f
5:00pm 2
mph
1014.9mb 38f
4:54pm 1 3 mph 1014.8mb 38f
4:48pm 1 2 mph 1014.7mb 38f
4:42pm 2 5 mph 1014.7mb 39f
4:36pm 2 3 mph 1014.6mb 39f
4:30pm 1 2 mph 1014.6mb 39f
4:24pm 2 3 mph 1014.6mb 39f
4:18pm 1 3 mph 1014.6mb 39f
4:12pm 2 3 mph 1014.6mb 40f
4:06pm 2 5 mph 1014.6mb 40f
4:00pm 2 6 mph 1014.6mb 40f
3:54pm 3 8 mph 1014.6mb 40f
3:48pm 3 7 mph 1014.6mb 41f
3:42pm 2 8 mph 1014.6mb 41f
3:36pm 3 7 mph 1014.6mb 42f
3:30pm 5 8 mph 1014.7mb 42f
3:24pm 3 7 mph 1014.7mb 42f
3:18pm 3 7 mph 1014.8mb 42f
3:12pm 3 6 mph 1014.9mb 42f
3:06pm 2 5 mph 1014.9mb 42f
3:00pm 3 6 mph 1014.9mb 42f
2:54pm 3 7 mph 1014.9mb 42f
2:48pm 2 5 mph 1015mb 42f
2:42pm 2 6 mph 1015mb 42f
2:36pm 2 5 mph 1015.1mb 42f
2:30pm 2 3 mph 1015.2mb 42f
2:24pm 2 5 mph 1015.2mb 42f
2:18pm 2 6 mph 1015.2mb 42f
2:12pm 6 8 mph 1015.3mb 42f
2:06pm 6 8 mph 1015.4mb 43f
2:00pm 5 7 mph 1015.4mb 43f
1:54pm 6 9 mph 1015.5mb 44f
1:48pm 5 9 mph 1015.6mb 43f
1:42pm 6 9 mph 1015.6mb 43f
1:36pm 5 8 mph 1015.6mb 42f
1:30pm 3 6 mph 1015.7mb 41f
1:24pm 3 6 mph 1015.8mb 41f
1:18pm 2 6 mph 1015.7mb 41f
1:12pm 3 5 mph 1015.7mb 42f
1:06pm 2 5 mph 1015.8mb 41f
1:00pm 5 6 mph 1015.8mb 42f
12:54pm 5 6 mph 1015.8mb 42f
12:48pm 2 3 mph 1015.9mb 42f
12:42pm 2
mph
1015.8mb 42f
12:36pm  -  1 mph 1015.9mb 40f
12:30pm 1 2 mph 1015.9mb 40f
12:24pm 2
mph
1015.9mb 40f
12:18pm 2 3 mph 1016mb 40f
12:12pm 2 3 mph 1016.1mb 39f
12:06pm 3 5 mph 1016.2mb 40f
12:00pm 2 5 mph 1016.2mb 40f
11:54am 2 3 mph 1016.4mb 39f
11:48am 2 3 mph 1016.4mb 39f
11:42am 1 2 mph 1016.5mb 40f
11:36am 1 2 mph 1016.6mb 39f
11:30am 3
mph
1016.7mb 39f
11:24am 2
mph
1016.8mb 39f
11:18am 2
mph
1017.1mb 38f
11:12am 2 3 mph 1017.2mb 39f
11:06am 1 2 mph 1017.3mb 39f
11:00am  -  2 mph 1017.3mb 38f
10:54am 1 3 mph 1017.4mb 38f
10:48am 2
mph
1017.5mb 38f
10:42am 2 3 mph 1017.5mb 37f
10:36am 2 3 mph 1017.5mb 37f
10:30am 1 2 mph 1017.6mb 37f
10:24am 2 3 mph 1017.7mb 37f
10:18am 2 3 mph 1017.8mb 37f
10:12am 2 3 mph 1017.8mb 37f
10:06am 3 5 mph 1017.9mb 37f
10:00am 3 5 mph 1017.8mb 36f
9:54am 3 5 mph 1017.9mb 36f
9:48am 3 5 mph 1018mb 36f
9:42am 5 6 mph 1017.9mb 36f
9:36am 5 6 mph 1017.8mb 36f
9:30am 5 6 mph 1017.9mb 36f
9:24am 3 5 mph 1017.9mb 36f
9:18am 3 5 mph 1017.9mb -
9:12am 3 5 mph 1017.9mb 35f
9:06am 3 5 mph 1017.9mb 35f
9:00am 3 5 mph 1017.8mb 35f
8:54am 2 3 mph 1017.8mb 35f
8:48am 1 2 mph 1017.8mb 35f
8:42am 2 3 mph 1017.8mb 34f
8:36am  -  1 mph 1017.8mb 34f
8:30am 1 2 mph 1017.7mb 34f
8:24am 2 6 mph 1017.6mb 34f
8:18am 2 3 mph 1017.4mb 34f
8:12am 2 6 mph 1017.4mb 33f
8:06am 3 6 mph 1017.3mb 33f
8:00am 3 6 mph 1017.2mb 33f
7:54am 3 6 mph 1017.2mb 33f
7:48am 2 3 mph 1017.1mb 33f
7:42am 2 3 mph 1017mb 33f
7:36am 2 3 mph 1017mb 33f
7:30am 2 5 mph 1017.1mb 33f
7:24am 2 3 mph 1017.1mb 33f
7:18am 2 3 mph 1017.2mb 33f
7:12am 3
mph
1017.1mb 33f
7:06am 2 3 mph 1017.1mb 33f
7:00am 3 5 mph 1017.2mb 33f
6:54am 3
mph
1017.2mb 33f
6:48am 2 3 mph 1017.1mb 33f
6:42am 2 3 mph 1017.1mb 33f
6:36am 3
mph
1017mb 33f
6:30am 2
mph
1017mb 33f
6:24am 2 3 mph 1017mb 33f
6:18am 2 3 mph 1016.9mb -
6:12am 2 3 mph 1016.9mb 34f
6:06am 2 3 mph 1016.9mb 34f
6:00am 2 3 mph 1016.9mb 34f
5:54am 2 3 mph 1016.9mb 34f
5:48am 3 5 mph 1016.8mb 34f
5:42am 3 5 mph 1016.9mb 35f
5:36am 2 5 mph 1016.9mb 35f
5:30am 2 3 mph 1017mb 35f
5:24am 2 5 mph 1017.1mb 35f
5:18am 3 5 mph 1017.2mb 35f
5:12am 2 5 mph 1017.1mb 35f
5:06am 3 5 mph 1017.2mb 35f
5:00am 3 5 mph 1017.2mb 35f
4:54am 2 5 mph 1017.1mb 35f
4:48am 3 5 mph 1017.1mb -
4:42am 3
mph
1017mb 36f
4:36am 3
mph
1016.9mb 36f
4:30am 2 5 mph 1017mb 36f
4:24am 2 3 mph 1017.1mb 36f
4:18am 2 5 mph 1017.2mb 36f
4:12am 3 5 mph 1017.3mb 36f
4:06am 3 5 mph 1017.2mb 36f
4:00am 3 6 mph 1017.2mb 36f
3:54am 3 6 mph 1017.2mb 36f
3:48am 3 6 mph 1017.2mb 36f
3:42am 2 5 mph 1017.2mb 36f
3:36am 2 5 mph 1017.1mb 37f
3:30am 3 6 mph 1017.2mb 37f
3:24am 2 6 mph 1017.2mb 37f
3:18am 2 6 mph 1017.1mb 37f
3:12am 3 6 mph 1017mb 37f
3:06am 2 5 mph 1017mb 37f
3:00am 3 6 mph 1017mb 37f
2:54am 3 6 mph 1017.1mb 37f
2:48am 3 6 mph 1017mb 37f
2:42am 3 7 mph 1017.1mb 37f
2:36am 3 6 mph 1017mb 37f
2:30am 3 6 mph 1016.9mb 38f
2:24am 2 3 mph 1016.9mb 37f
2:18am 3 5 mph 1016.9mb 37f
2:12am 2 5 mph 1016.8mb 38f
2:06am 1 2 mph 1016.8mb 38f
2:00am 1 2 mph 1016.8mb 37f
1:54am 2 3 mph 1016.9mb 38f
1:48am 2 3 mph 1016.6mb 38f
1:42am 3 6 mph 1016.5mb 38f
1:36am 5 6 mph 1016.4mb 39f
1:30am 3 5 mph 1016.2mb 39f
1:24am 6 7 mph 1016.2mb 39f
1:18am 5 6 mph 1016.3mb 40f
1:12am 7 8 mph 1016.4mb 40f
1:06am 6 7 mph 1016.4mb 40f
1:00am 5 7 mph 1016.4mb -
12:54am 5 8 mph 1016.5mb 40f
12:48am 6 7 mph 1016.5mb 40f
12:42am 6 8 mph 1016.4mb -
12:36am 6 8 mph 1016.4mb -
12:30am 7 9 mph 1016.4mb 40f
12:24am 7 9 mph 1016.3mb 40f
12:18am 7 9 mph 1016.2mb 40f
12:12am 8 11 mph 1016.2mb 40f
12:06am 9 11 mph 1016mb 41f
12:00am 9 11 mph 1016.1mb 41f
Thu 01/19 11:54pm 9 13 mph 1016.2mb 41f
11:48pm 9 10 mph 1016.1mb 41f
11:42pm 10 13 mph 1016.1mb 41f
11:36pm 9 13 mph 1016.1mb 41f
11:30pm 9 11 mph 1016.3mb 41f
11:24pm 9 11 mph 1016.4mb 41f
11:18pm 9 10 mph 1016.4mb 41f
11:12pm 9 10 mph 1016.3mb 41f
11:06pm 8 10 mph 1016.3mb 41f
11:00pm 8 11 mph 1016.5mb 42f
10:54pm 8 10 mph 1016.7mb 42f
10:48pm 7 9 mph 1016.9mb 42f
10:42pm 8 10 mph 1016.9mb 42f
10:36pm 7 10 mph 1017mb 42f
10:30pm 7 10 mph 1016.9mb 42f
10:24pm 5 8 mph 1017mb 42f
10:18pm 6 8 mph 1017.2mb 42f
10:12pm 6 8 mph 1017.1mb 42f
10:06pm 5 9 mph 1017.4mb 42f
10:00pm 6 9 mph 1017.3mb 42f
9:54pm 5 10 mph 1017.3mb 43f
9:48pm 5 9 mph 1017.4mb 43f
9:42pm 5 8 mph 1017.4mb 43f
9:36pm 5 9 mph 1017.4mb 43f
9:30pm 3 6 mph 1017.5mb 43f
9:24pm 3 6 mph 1017.4mb 43f
9:18pm 2 5 mph 1017.3mb 43f
9:12pm 3 6 mph 1017.2mb 43f
9:06pm 3 6 mph 1017.3mb 42f
9:00pm 3 6 mph 1017.3mb 42f
8:54pm 2 6 mph 1017.4mb 43f
8:48pm 2 6 mph - -
8:42pm 3 6 mph 1017.3mb 43f
8:36pm 3 5 mph 1017.2mb 43f
8:30pm 2 6 mph 1017.2mb 43f
8:24pm 3 8 mph 1017.2mb 43f
8:18pm 3 6 mph - -
8:12pm 2 5 mph 1017.1mb 42f
8:06pm 2 5 mph 1017mb 42f
8:00pm 2 3 mph 1017mb 42f
7:54pm 2 3 mph 1017mb 42f
7:48pm 2 3 mph 1017mb 42f
7:42pm 2 3 mph 1016.9mb 42f
7:36pm 2 3 mph 1016.9mb 43f
7:30pm 2 5 mph 1016.8mb 43f
7:24pm 1 2 mph 1016.7mb 42f
7:18pm 1 2 mph 1016.5mb 43f
7:12pm 1 2 mph 1016.4mb 43f
7:06pm 2 3 mph 1016.4mb 42f
7:00pm 2 5 mph 1016.3mb 43f
6:54pm 2 5 mph 1016.2mb 43f
6:48pm 3 5 mph - -
6:42pm 3 5 mph 1016.5mb 43f
6:36pm 3 5 mph 1016.4mb 43f
6:30pm 3 5 mph 1016.4mb 43f
6:24pm 2 5 mph 1016.3mb 43f
6:18pm 2 5 mph 1016.3mb 43f
6:12pm 2 3 mph 1016mb 43f
6:06pm 3 6 mph 1015.7mb 43f
6:00pm 3 6 mph 1015.7mb 43f
5:54pm 3 5 mph 1015.6mb 42f
5:48pm 3 5 mph 1015.4mb -
5:42pm 3 5 mph 1015.3mb 42f
5:36pm 2 3 mph 1015.2mb 43f
5:30pm 5 6 mph 1015.1mb 43f
5:24pm 3 5 mph 1015.1mb 43f
5:18pm 3 5 mph 1015mb 42f
5:12pm 5
mph
1015mb 42f
5:06pm 3 6 mph 1014.9mb 42f
5:00pm 3 5 mph 1014.8mb 42f
4:54pm 3 5 mph 1014.8mb 42f
4:48pm 6 7 mph 1014.8mb 43f
4:42pm 6 7 mph 1014.8mb 43f
4:36pm 6 7 mph 1014.8mb 43f
4:30pm 6 7 mph 1014.8mb 42f
4:24pm 6 8 mph 1014.7mb 42f
4:18pm 6 8 mph 1014.6mb 43f
4:12pm 5 7 mph 1014.7mb 43f
4:06pm 3 6 mph 1014.7mb 43f
4:00pm 2
mph
1014.7mb 43f
3:54pm 2 3 mph 1014.6mb 43f
3:48pm 3 5 mph 1014.6mb 43f
3:42pm 3
mph
1014.6mb 44f
3:36pm 2 3 mph 1014.6mb 43f
3:30pm 1 2 mph 1014.6mb 44f
3:24pm 1 2 mph 1014.6mb 44f
3:18pm 1 2 mph 1014.6mb -
3:12pm  -  1 mph 1014.6mb 45f
3:06pm  -  1 mph 1014.6mb 45f
3:00pm  -  2 mph 1014.5mb 45f
2:54pm 2 3 mph 1014.5mb 45f
2:48pm 2 5 mph 1014.4mb 45f
2:42pm 5 8 mph 1014.4mb 45f
2:36pm 5 6 mph 1014.4mb 45f
2:30pm 5 7 mph 1014.4mb 45f
2:24pm 5 7 mph 1014.4mb 45f
2:18pm 3 6 mph 1014.3mb 45f
2:12pm 3 7 mph 1014.4mb 44f
2:06pm 6 7 mph 1014.4mb 45f
2:00pm 6 8 mph 1014.4mb 44f
1:54pm 5 7 mph 1014.4mb 45f
1:48pm 3 6 mph 1014.4mb 45f
1:42pm 6 8 mph 1014.4mb 45f
1:36pm 9 11 mph 1014.4mb 45f
1:30pm 9 14 mph 1014.3mb 44f
1:24pm 10 14 mph 1014.4mb 45f
1:18pm 7 9 mph 1014.4mb 46f
1:12pm 8 11 mph 1014.5mb 45f
1:06pm 8 10 mph 1014.5mb 44f
1:00pm 5 7 mph 1014.5mb 45f
12:54pm 6 8 mph 1014.5mb 45f
12:48pm 6 9 mph 1014.5mb 44f
12:42pm 5 7 mph 1014.5mb 44f
12:36pm 5 7 mph 1014.5mb 44f
12:30pm  -  2 mph 1014.5mb 43f
12:24pm 2 3 mph 1014.7mb 44f
12:18pm 3 5 mph 1014.7mb 44f
12:12pm 2 3 mph 1014.7mb 43f
12:06pm 2 3 mph 1014.8mb 44f
12:00pm 2 5 mph 1014.9mb 44f